Time;durP1;ratioP1;P1;durP2;ratioP2;P2;SDS_P1;SDS_P2;PMS_P1;PMS_P2;Temp;Humidity;BMP_temperature;BMP_pressure;BME280_temperature;BME280_humidity;BME280_pressure;Samples;Min_cycle;Max_cycle;Signal;HPM_P1;HPM_P2
2022/10/15 00:00:49;;;;;;;31.83;17.02;;;;;;;15.61;62.11;98849.47;4472051;32;20084;-87
2022/10/15 00:03:15;;;;;;;30.10;16.37;;;;;;;16.21;60.21;98842.34;4472059;32;20383;-88
2022/10/15 00:05:40;;;;;;;29.17;16.30;;;;;;;16.27;60.10;98844.50;4470975;32;20097;-87
2022/10/15 00:08:07;;;;;;;28.85;16.35;;;;;;;16.37;59.76;98838.50;4472173;32;20119;-86
2022/10/15 00:10:33;;;;;;;29.42;16.50;;;;;;;15.77;61.75;98841.25;4472108;32;20093;-87
2022/10/15 00:12:59;;;;;;;35.97;18.95;;;;;;;16.02;61.14;98848.22;4470938;32;20115;-90
2022/10/15 00:15:24;;;;;;;36.60;19.35;;;;;;;16.19;60.35;98838.94;4471799;32;20092;-88
2022/10/15 00:17:50;;;;;;;34.88;19.85;;;;;;;16.28;60.06;98846.22;4471724;32;20122;-88
2022/10/15 00:20:15;;;;;;;33.30;18.83;;;;;;;16.25;59.91;98849.09;4471840;32;20481;-89
2022/10/15 00:22:41;;;;;;;34.70;19.73;;;;;;;16.48;59.32;98838.50;4470355;32;20416;-89
2022/10/15 00:25:07;;;;;;;31.60;18.08;;;;;;;16.27;59.91;98841.03;4470433;32;20136;-88
2022/10/15 00:27:33;;;;;;;32.38;19.27;;;;;;;16.29;59.85;98834.59;4471703;32;20101;-88
2022/10/15 00:29:59;;;;;;;32.85;17.98;;;;;;;16.21;60.07;98845.00;4457438;32;20838;-89
2022/10/15 00:32:25;;;;;;;31.27;17.37;;;;;;;15.95;61.03;98849.63;4470529;32;20085;-89
2022/10/15 00:34:50;;;;;;;33.92;17.42;;;;;;;16.23;60.03;98834.25;4471591;32;20141;-88
2022/10/15 00:37:16;;;;;;;28.33;15.70;;;;;;;16.38;59.46;98821.56;4470556;32;20104;-88
2022/10/15 00:39:42;;;;;;;26.12;14.43;;;;;;;16.22;59.98;98830.72;4471328;32;20118;-88
2022/10/15 00:42:09;;;;;;;30.30;15.15;;;;;;;16.25;59.82;98827.00;4471339;32;20133;-88
2022/10/15 00:44:55;;;;;;;30.27;15.32;;;;;;;16.35;59.44;98829.78;4470234;32;20101;-88
2022/10/15 00:47:53;;;;;;;29.77;15.45;;;;;;;16.29;59.70;98818.66;4470290;32;20119;-87
2022/10/15 00:50:21;;;;;;;32.97;18.15;;;;;;;16.42;59.19;98820.37;4425331;32;20361;-87
2022/10/15 00:52:58;;;;;;;35.67;19.33;;;;;;;16.49;58.88;98818.91;4423436;32;20101;-88
2022/10/15 00:55:30;;;;;;;36.15;19.58;;;;;;;16.40;59.28;98815.19;4410088;32;20110;-87
2022/10/15 00:58:00;;;;;;;37.30;20.37;;;;;;;16.31;59.48;98818.53;4410302;32;20171;-88
2022/10/15 01:00:26;;;;;;;36.13;19.92;;;;;;;16.49;58.85;98808.28;4410515;32;20148;-88
2022/10/15 01:02:52;;;;;;;32.55;18.60;;;;;;;16.25;59.55;98813.72;4423186;32;20125;-88
2022/10/15 01:05:18;;;;;;;32.22;18.92;;;;;;;16.33;59.11;98808.62;4423168;32;20153;-87
2022/10/15 01:07:43;;;;;;;32.45;18.42;;;;;;;16.37;58.90;98810.09;4426454;32;20566;-87
2022/10/15 01:10:10;;;;;;;30.90;18.00;;;;;;;16.56;58.21;98806.00;4410320;32;20113;-87
2022/10/15 01:12:41;;;;;;;31.35;17.45;;;;;;;16.37;58.79;98803.94;4423032;32;20153;-88
2022/10/15 01:15:25;;;;;;;33.03;18.45;;;;;;;16.56;58.05;98796.19;4409713;32;20102;-88
2022/10/15 01:18:14;;;;;;;35.75;19.48;;;;;;;16.56;57.98;98795.34;4410040;32;20118;-88
2022/10/15 01:21:04;;;;;;;36.10;21.00;;;;;;;16.57;57.91;98805.84;4409956;32;20492;-87
2022/10/15 01:24:00;;;;;;;34.13;20.37;;;;;;;16.35;58.55;98811.19;4422747;32;20154;-87
2022/10/15 01:27:03;;;;;;;35.60;21.12;;;;;;;16.47;58.29;98799.56;4445991;32;20643;-88
2022/10/15 01:29:44;;;;;;;37.33;22.37;;;;;;;16.29;58.80;98801.88;4456034;32;20365;-86
2022/10/15 01:32:22;;;;;;;41.97;24.25;;;;;;;16.45;58.36;98802.34;4454531;32;20123;-86
2022/10/15 01:34:55;;;;;;;46.92;26.40;;;;;;;16.39;58.56;98800.19;4454578;32;20107;-86
2022/10/15 01:37:41;;;;;;;52.15;30.33;;;;;;;16.34;58.72;98802.38;4454549;32;20151;-87
2022/10/15 01:40:26;;;;;;;57.78;31.50;;;;;;;16.48;58.29;98795.97;4455996;32;20350;-87
2022/10/15 01:42:59;;;;;;;48.95;30.10;;;;;;;16.48;58.22;98788.81;4454667;32;20089;-88
2022/10/15 01:45:55;;;;;;;47.50;26.92;;;;;;;16.42;58.56;98794.63;4454434;32;20131;-88
2022/10/15 01:48:21;;;;;;;40.70;22.85;;;;;;;16.17;59.47;98793.03;4455283;32;20171;-88
2022/10/15 01:50:50;;;;;;;38.15;20.55;;;;;;;16.30;59.09;98791.13;4454848;32;20176;-88
2022/10/15 01:53:20;;;;;;;36.88;19.45;;;;;;;16.40;58.69;98785.94;4459357;32;20140;-88
2022/10/15 01:55:46;;;;;;;37.08;17.83;;;;;;;16.45;58.52;98788.22;4469960;32;20073;-88
2022/10/15 01:58:13;;;;;;;32.05;17.98;;;;;;;16.23;59.37;98794.38;4471249;32;20092;-88
2022/10/15 02:00:40;;;;;;;29.10;16.50;;;;;;;16.26;59.16;98792.34;4456979;32;20153;-88
2022/10/15 02:03:05;;;;;;;30.33;15.33;;;;;;;16.25;59.25;98789.78;4469829;32;20163;-87
2022/10/15 02:05:36;;;;;;;28.42;16.20;;;;;;;16.08;60.11;98791.09;4470946;32;20125;-88
2022/10/15 02:08:27;;;;;;;29.20;15.45;;;;;;;16.09;60.10;98792.78;4469827;32;20166;-88
2022/10/15 02:11:02;;;;;;;28.10;15.32;;;;;;;16.23;59.55;98797.88;4470917;32;20111;-88
2022/10/15 02:13:53;;;;;;;27.55;14.20;;;;;;;16.25;59.56;98797.75;4469935;32;20088;-88
2022/10/15 02:16:42;;;;;;;33.08;15.57;;;;;;;15.95;60.58;98796.50;4470877;32;20073;-88
2022/10/15 02:19:11;;;;;;;;;;;;;;;16.25;59.62;98795.94;4470080;32;20088;-86
2022/10/15 02:21:48;;;;;;;28.17;14.23;;;;;;;16.12;60.05;98803.16;4470883;32;20286;-87
2022/10/15 02:24:23;;;;;;;26.85;12.88;;;;;;;15.81;61.02;98802.03;4469554;32;20152;-87
2022/10/15 02:26:51;;;;;;;27.55;14.48;;;;;;;16.11;59.84;98798.84;4470734;32;20103;-87
2022/10/15 02:29:20;;;;;;;25.08;13.30;;;;;;;15.75;61.01;98798.03;4469474;32;20152;-88
2022/10/15 02:31:46;;;;;;;24.58;13.02;;;;;;;15.98;60.08;98790.94;4456467;32;20108;-87
2022/10/15 02:34:16;;;;;;;22.30;12.48;;;;;;;16.09;59.42;98788.31;4456236;32;20092;-88
2022/10/15 02:36:42;;;;;;;26.33;12.52;;;;;;;16.13;59.31;98783.63;4470578;32;20088;-88
2022/10/15 02:39:11;;;;;;;24.00;13.15;;;;;;;16.13;59.04;98783.63;4469239;32;20121;-86
2022/10/15 02:41:37;;;;;;;26.73;13.73;;;;;;;16.17;58.75;98784.19;4469333;32;20481;-89
2022/10/15 02:44:03;;;;;;;26.50;13.30;;;;;;;16.15;58.53;98776.38;4469344;32;20085;-88
2022/10/15 02:46:28;;;;;;;23.65;12.23;;;;;;;15.88;59.14;98777.53;4470232;32;20092;-88
2022/10/15 02:48:54;;;;;;;26.52;14.10;;;;;;;16.10;58.35;98786.50;4470335;32;20369;-87
2022/10/15 02:51:19;;;;;;;25.70;13.57;;;;;;;15.48;60.02;98783.16;4470305;32;20232;-87
2022/10/15 02:53:45;;;;;;;25.25;12.63;;;;;;;15.83;59.10;98779.69;4469161;32;20440;-88
2022/10/15 02:56:10;;;;;;;24.08;12.65;;;;;;;15.95;58.58;98766.44;4470240;32;20107;-89
2022/10/15 02:58:36;;;;;;;29.58;15.80;;;;;;;16.05;58.26;98773.59;4470157;32;20118;-89
2022/10/15 03:01:01;;;;;;;28.70;15.52;;;;;;;16.08;58.03;98772.50;4470126;32;20089;-90
2022/10/15 03:03:26;;;;;;;30.60;16.85;;;;;;;16.09;57.95;98766.22;4469368;32;20146;-89
2022/10/15 03:05:52;;;;;;;29.33;16.80;;;;;;;16.10;57.92;98763.41;4472269;32;20092;-89
2022/10/15 03:08:17;;;;;;;30.83;16.17;;;;;;;16.09;57.87;98766.22;4471288;32;20395;-87
2022/10/15 03:10:44;;;;;;;29.37;17.17;;;;;;;16.05;57.91;98767.41;4472082;32;20150;-87
2022/10/15 03:13:10;;;;;;;33.93;17.30;;;;;;;16.06;57.91;98761.13;4472374;32;20151;-87
2022/10/15 03:15:35;;;;;;;33.45;17.50;;;;;;;16.01;57.92;98765.94;4472315;32;20360;-88
2022/10/15 03:18:01;;;;;;;32.70;16.80;;;;;;;15.79;58.33;98769.41;4471181;32;20148;-88
2022/10/15 03:20:26;;;;;;;30.70;16.73;;;;;;;15.84;58.21;98769.91;4472246;32;20184;-88
2022/10/15 03:22:52;;;;;;;31.42;15.98;;;;;;;15.81;58.37;98770.97;4472139;32;20440;-88
2022/10/15 03:25:17;;;;;;;30.60;15.63;;;;;;;15.83;58.33;98760.25;4472271;32;20399;-88
2022/10/15 03:27:42;;;;;;;26.12;15.15;;;;;;;15.80;58.31;98756.03;4471054;32;20097;-88
2022/10/15 03:30:08;;;;;;;29.25;15.80;;;;;;;15.72;58.56;98751.28;4472064;32;20131;-88
2022/10/15 03:32:34;;;;;;;29.15;15.05;;;;;;;15.70;58.58;98755.84;4472127;32;20142;-88
2022/10/15 03:34:59;;;;;;;26.45;14.68;;;;;;;15.71;58.52;98762.00;4471216;32;20089;-87
2022/10/15 03:37:24;;;;;;;27.98;13.62;;;;;;;15.75;58.42;98774.13;4472370;32;20088;-88
2022/10/15 03:39:50;;;;;;;27.17;14.20;;;;;;;15.76;58.44;98773.16;4472349;32;20088;-88
2022/10/15 03:42:15;;;;;;;24.75;13.35;;;;;;;15.71;58.48;98784.09;4472061;32;20451;-88
2022/10/15 03:44:41;;;;;;;25.85;13.30;;;;;;;15.68;58.48;98778.16;4470731;32;20140;-89
2022/10/15 03:47:06;;;;;;;28.55;14.25;;;;;;;15.69;58.35;98772.75;4470677;32;20409;-88
2022/10/15 03:49:32;;;;;;;27.73;15.55;;;;;;;15.68;58.31;98773.72;4472481;32;20088;-88
2022/10/15 03:51:57;;;;;;;34.40;19.30;;;;;;;15.71;58.24;98785.91;4471185;32;20088;-87
2022/10/15 03:54:23;;;;;;;32.17;16.98;;;;;;;15.63;58.33;98777.69;4470735;32;20089;-87
2022/10/15 03:56:48;;;;;;;34.15;18.17;;;;;;;15.50;58.67;98778.59;4472063;32;20123;-87
2022/10/15 03:59:15;;;;;;;36.33;19.35;;;;;;;15.48;58.66;98783.16;4472062;32;20332;-87
2022/10/15 04:01:40;;;;;;;32.20;19.20;;;;;;;15.46;58.65;98777.12;4470688;32;20450;-87
2022/10/15 04:04:06;;;;;;;36.53;19.87;;;;;;;15.42;58.72;98773.00;4471897;32;20131;-90
2022/10/15 04:06:33;;;;;;;35.72;19.20;;;;;;;15.36;58.90;98768.16;4471966;32;20398;-87
2022/10/15 04:08:58;;;;;;;41.63;21.58;;;;;;;15.29;59.09;98761.63;4471911;32;20101;-87
2022/10/15 04:11:24;;;;;;;35.50;20.50;;;;;;;15.27;59.08;98769.69;4471930;32;20132;-88
2022/10/15 04:13:50;;;;;;;35.20;20.75;;;;;;;15.12;59.35;98761.06;4470622;32;20084;-88
2022/10/15 04:16:16;;;;;;;42.20;23.52;;;;;;;15.18;59.29;98766.87;4470872;32;20097;-85
2022/10/15 04:18:41;;;;;;;37.97;21.33;;;;;;;15.19;59.30;98757.97;4471907;32;20194;-85
2022/10/15 04:21:08;;;;;;;41.08;22.08;;;;;;;15.16;59.25;98764.31;4470421;32;20120;-87
2022/10/15 04:23:33;;;;;;;40.70;22.83;;;;;;;15.16;59.21;98763.47;4470700;32;20115;-86
2022/10/15 04:25:59;;;;;;;44.15;23.00;;;;;;;15.11;59.24;98764.66;4470625;32;20361;-86
2022/10/15 04:28:25;;;;;;;39.33;21.30;;;;;;;15.07;59.50;98765.84;4471778;32;20452;-88
2022/10/15 04:30:54;;;;;;;39.08;21.02;;;;;;;15.05;59.55;98766.94;4471743;32;20080;-86
2022/10/15 04:33:19;;;;;;;39.50;22.00;;;;;;;15.02;59.64;98759.19;4470576;32;20073;-85
2022/10/15 04:35:45;;;;;;;38.30;21.27;;;;;;;14.99;59.65;98773.53;4471595;32;20115;-86
2022/10/15 04:38:10;;;;;;;39.20;20.05;;;;;;;14.96;59.73;98770.25;4470502;32;20092;-86
2022/10/15 04:40:35;;;;;;;38.15;21.00;;;;;;;14.90;59.83;98776.84;4471667;32;20111;-88
2022/10/15 04:43:01;;;;;;;37.85;20.27;;;;;;;14.79;60.27;98785.56;4471678;32;20089;-89
2022/10/15 04:45:26;;;;;;;37.42;20.05;;;;;;;14.81;60.29;98783.66;4471723;32;20116;-87
2022/10/15 04:47:52;;;;;;;36.08;19.30;;;;;;;14.82;60.33;98787.19;4471508;32;20149;-87
2022/10/15 04:50:17;;;;;;;36.33;19.17;;;;;;;14.78;60.54;98781.25;4471663;32;20113;-87
2022/10/15 04:52:42;;;;;;;40.65;20.48;;;;;;;14.80;60.58;98773.19;4471561;32;20100;-86
2022/10/15 04:55:09;;;;;;;43.75;21.08;;;;;;;14.85;60.33;98777.16;4470360;32;20449;-88
2022/10/15 04:57:34;;;;;;;37.95;20.40;;;;;;;14.87;60.30;98775.28;4471680;32;20101;-86
2022/10/15 05:00:00;;;;;;;40.35;20.23;;;;;;;14.94;60.23;98775.66;4470592;32;20116;-86
2022/10/15 05:02:25;;;;;;;37.45;19.55;;;;;;;14.96;60.17;98772.91;4471769;32;20124;-86
2022/10/15 05:04:51;;;;;;;35.78;19.80;;;;;;;14.96;60.19;98775.56;4471741;32;20144;-94
2022/10/15 05:07:16;;;;;;;38.83;20.77;;;;;;;15.00;60.21;98769.06;4471846;32;20470;-93
2022/10/15 05:09:41;;;;;;;43.80;21.12;;;;;;;15.00;60.34;98779.69;4471749;32;20088;-91
2022/10/15 05:12:07;;;;;;;40.40;20.73;;;;;;;15.03;60.41;98779.47;4471680;32;20433;-91
2022/10/15 05:14:34;;;;;;;44.22;19.17;;;;;;;15.05;60.38;98780.19;4471727;32;20104;-91
2022/10/15 05:16:59;;;;;;;36.92;19.87;;;;;;;15.10;60.44;98786.88;4471746;32;20097;-91
2022/10/15 05:19:25;;;;;;;35.20;18.83;;;;;;;15.14;60.40;98780.38;4471745;32;20338;-88
2022/10/15 05:21:50;;;;;;;36.88;19.20;;;;;;;15.17;60.33;98787.25;4471575;32;20084;-88
2022/10/15 05:24:16;;;;;;;33.25;17.65;;;;;;;15.24;60.21;98784.97;4471468;32;20093;-88
2022/10/15 05:26:41;;;;;;;34.80;17.73;;;;;;;15.25;60.05;98786.69;4471130;32;20092;-90
2022/10/15 05:29:07;;;;;;;33.10;16.70;;;;;;;15.31;59.93;98788.87;4471728;32;20434;-92
2022/10/15 05:31:33;;;;;;;30.62;16.23;;;;;;;15.33;59.79;98790.44;4470473;32;20093;-91
2022/10/15 05:33:58;;;;;;;31.85;16.27;;;;;;;15.42;59.45;98782.78;4457140;32;20131;-91
2022/10/15 05:36:28;;;;;;;31.45;17.85;;;;;;;15.23;59.87;98776.19;4471250;32;20097;-84
2022/10/15 05:38:59;;;;;;;37.20;21.87;;;;;;;15.45;59.42;98774.56;4470185;32;20096;-89
2022/10/15 05:41:26;;;;;;;35.38;21.30;;;;;;;15.44;59.36;98771.09;4470186;32;20123;-92
2022/10/15 05:43:53;;;;;;;40.17;22.73;;;;;;;15.53;58.90;98764.25;4470291;32;20113;-83
2022/10/15 05:46:19;;;;;;;39.80;22.40;;;;;;;15.32;59.31;98767.53;4471342;32;20088;-84
2022/10/15 05:48:52;;;;;;;37.72;21.58;;;;;;;15.52;58.90;98774.00;4469794;32;20112;-81
2022/10/15 05:51:17;;;;;;;35.00;19.00;;;;;;;15.64;58.61;98768.72;4461673;32;20096;-85
2022/10/15 05:53:45;;;;;;;34.47;18.90;;;;;;;15.70;58.22;98773.56;4465043;32;20096;-85
2022/10/15 05:56:11;;;;;;;28.08;15.27;;;;;;;15.14;59.65;98776.84;4464002;32;20123;-82
2022/10/15 05:58:36;;;;;;;25.98;14.02;;;;;;;15.38;59.02;98776.84;4470027;32;20089;-86
2022/10/15 06:01:04;;;;;;;26.48;14.35;;;;;;;15.42;58.83;98775.66;4469736;32;20080;-81
2022/10/15 06:03:29;;;;;;;;;;;;;;;15.64;58.19;98777.53;4471389;32;20490;-85
2022/10/15 06:05:55;;;;;;;22.67;11.15;;;;;;;15.53;58.40;98778.38;4468362;32;20018;-84
2022/10/15 06:08:21;;;;;;;21.25;11.40;;;;;;;15.71;58.02;98781.44;4463547;32;20158;-85
2022/10/15 06:10:46;;;;;;;24.05;11.80;;;;;;;15.81;58.15;98791.41;4461859;32;20473;-85
2022/10/15 06:13:12;;;;;;;23.17;12.00;;;;;;;15.95;57.81;98796.50;4462763;32;20124;-85
2022/10/15 06:15:43;;;;;;;22.67;11.27;;;;;;;15.88;58.01;98801.44;4461957;32;20108;-84
2022/10/15 06:18:09;;;;;;;21.75;11.25;;;;;;;15.71;58.66;98807.16;4455177;32;20600;-86
2022/10/15 06:20:36;;;;;;;22.65;10.98;;;;;;;15.86;58.15;98811.34;4441166;32;20097;-85
2022/10/15 06:23:03;;;;;;;19.80;9.68;;;;;;;15.90;57.98;98803.97;4455288;32;20151;-85
2022/10/15 06:25:28;;;;;;;22.42;10.15;;;;;;;16.34;56.88;98812.13;4455244;32;20097;-84
2022/10/15 06:27:54;;;;;;;22.20;10.27;;;;;;;16.48;56.00;98812.75;4454051;32;20111;-84
2022/10/15 06:30:19;;;;;;;18.02;10.38;;;;;;;16.56;56.20;98813.97;4455050;32;20077;-83
2022/10/15 06:32:49;;;;;;;19.75;9.82;;;;;;;16.70;55.66;98813.72;4454825;32;20127;-83
2022/10/15 06:35:15;;;;;;;18.42;10.20;;;;;;;16.58;55.35;98818.19;4460461;32;20448;-86
2022/10/15 06:37:40;;;;;;;21.45;9.93;;;;;;;16.80;54.94;98808.50;4468942;32;20122;-83
2022/10/15 06:40:07;;;;;;;20.85;9.85;;;;;;;16.90;54.53;98810.34;4471308;32;20119;-83
2022/10/15 06:42:32;;;;;;;20.48;10.57;;;;;;;16.77;54.83;98809.59;4470094;32;20471;-85
2022/10/15 06:44:57;;;;;;;19.00;10.23;;;;;;;16.64;55.42;98812.37;4469314;32;20101;-85
2022/10/15 06:47:23;;;;;;;20.02;10.25;;;;;;;16.86;54.70;98813.34;4470660;32;20145;-84
2022/10/15 06:49:48;;;;;;;22.55;10.80;;;;;;;17.06;54.27;98820.59;4470904;32;20440;-85
2022/10/15 06:52:14;;;;;;;21.70;10.60;;;;;;;16.99;54.41;98827.37;4470278;32;20119;-84
2022/10/15 06:54:40;;;;;;;19.50;9.57;;;;;;;16.84;54.62;98824.16;4472512;32;20089;-85
2022/10/15 06:57:05;;;;;;;21.33;10.20;;;;;;;17.03;54.45;98833.31;4472388;32;20151;-84
2022/10/15 06:59:30;;;;;;;21.17;10.25;;;;;;;17.22;53.64;98825.50;4471245;32;20112;-85
2022/10/15 07:01:56;;;;;;;19.05;10.10;;;;;;;17.35;53.37;98828.03;4471130;32;20101;-85
2022/10/15 07:04:23;;;;;;;21.83;10.57;;;;;;;17.46;52.91;98828.00;4472403;32;20111;-85
2022/10/15 07:06:48;;;;;;;21.48;10.15;;;;;;;17.48;52.71;98827.84;4471222;32;20080;-85
2022/10/15 07:09:14;;;;;;;21.12;10.30;;;;;;;17.44;52.97;98835.28;4471085;32;20123;-85
2022/10/15 07:11:39;;;;;;;22.02;10.85;;;;;;;17.34;53.34;98836.13;4472333;32;20373;-85
2022/10/15 07:14:05;;;;;;;20.02;10.27;;;;;;;17.29;53.03;98834.69;4471184;32;20109;-84
2022/10/15 07:16:30;;;;;;;21.40;11.15;;;;;;;17.57;52.39;98835.09;4472204;32;20131;-85
2022/10/15 07:18:55;;;;;;;19.42;10.65;;;;;;;17.65;52.28;98839.78;4471065;32;20095;-87
2022/10/15 07:21:21;;;;;;;20.08;10.30;;;;;;;17.50;52.95;98839.25;4471918;32;20468;-85
2022/10/15 07:23:46;;;;;;;24.15;11.90;;;;;;;17.35;53.50;98840.50;4471109;32;20097;-84
2022/10/15 07:26:12;;;;;;;19.90;10.80;;;;;;;17.51;52.68;98840.09;4472305;32;20096;-84
2022/10/15 07:28:37;;;;;;;25.17;12.45;;;;;;;16.86;54.21;98834.66;4470959;32;20138;-84
2022/10/15 07:31:04;;;;;;;22.90;12.10;;;;;;;17.61;52.70;98835.69;4472165;32;20386;-85
2022/10/15 07:33:32;;;;;;;20.48;11.50;;;;;;;17.36;53.24;98832.38;4471134;32;20126;-83
2022/10/15 07:35:57;;;;;;;;;;;;;;;17.46;52.62;98830.66;4458369;32;20119;-81
2022/10/15 07:38:22;;;;;;;24.92;12.05;;;;;;;17.62;52.32;98826.72;4472230;32;19968;-82
2022/10/15 07:40:48;;;;;;;22.55;12.43;;;;;;;17.77;52.24;98828.13;4472017;32;20092;-82
2022/10/15 07:43:14;;;;;;;25.77;13.57;;;;;;;17.80;52.01;98827.00;4472090;32;20111;-80
2022/10/15 07:45:40;;;;;;;22.37;11.38;;;;;;;17.80;51.92;98829.66;4467514;32;20097;-81
2022/10/15 07:48:06;;;;;;;22.33;12.30;;;;;;;17.84;51.77;98831.12;4441677;32;20109;-81
2022/10/15 07:50:31;;;;;;;22.25;12.23;;;;;;;17.85;51.89;98836.34;4463306;32;20124;-81
2022/10/15 07:52:56;;;;;;;26.27;13.18;;;;;;;17.98;51.55;98836.16;4472119;32;21037;-80
2022/10/15 07:55:22;;;;;;;27.55;14.18;;;;;;;17.90;51.51;98835.09;4470283;32;20171;-83
2022/10/15 07:57:47;;;;;;;23.95;13.60;;;;;;;17.98;51.60;98833.50;4472138;32;20151;-82
2022/10/15 08:00:13;;;;;;;26.65;14.13;;;;;;;17.91;51.71;98842.97;4470973;32;20409;-81
2022/10/15 08:02:39;;;;;;;27.13;13.35;;;;;;;17.98;51.88;98849.50;4472083;32;20448;-81
2022/10/15 08:05:05;;;;;;;26.08;13.82;;;;;;;18.03;51.23;98849.09;4470989;32;20160;-81
2022/10/15 08:07:30;;;;;;;23.75;13.13;;;;;;;17.99;51.31;98850.31;4470818;32;20157;-81
2022/10/15 08:09:56;;;;;;;26.48;14.23;;;;;;;18.29;50.87;98857.53;4472053;32;20499;-81
2022/10/15 08:12:21;;;;;;;27.25;14.10;;;;;;;18.28;50.68;98856.69;4471985;32;20436;-83
2022/10/15 08:14:47;;;;;;;26.00;14.52;;;;;;;18.33;50.76;98860.78;4470721;32;20386;-82
2022/10/15 08:17:12;;;;;;;23.48;12.73;;;;;;;18.28;50.63;98862.03;4470840;32;20088;-83
2022/10/15 08:19:38;;;;;;;23.70;12.20;;;;;;;18.34;50.50;98863.31;4471955;32;20203;-83
2022/10/15 08:22:03;;;;;;;22.42;12.85;;;;;;;18.38;49.99;98863.91;4471934;32;20114;-85
2022/10/15 08:24:29;;;;;;;32.72;13.13;;;;;;;18.42;49.73;98865.31;4470762;32;20097;-84
2022/10/15 08:26:57;;;;;;;24.73;13.50;;;;;;;18.11;50.39;98867.09;4472052;32;20107;-82
2022/10/15 08:29:22;;;;;;;23.35;12.68;;;;;;;18.20;50.85;98861.84;4464488;32;20415;-88
2022/10/15 08:31:48;;;;;;;26.65;14.68;;;;;;;18.11;51.11;98861.78;4463200;32;20093;-86
2022/10/15 08:34:13;;;;;;;25.52;13.57;;;;;;;18.10;51.75;98863.59;4453873;32;20093;-86
2022/10/15 08:36:39;;;;;;;27.98;13.65;;;;;;;18.28;51.07;98858.50;4454951;32;20463;-86
2022/10/15 08:39:06;;;;;;;25.15;13.60;;;;;;;18.28;51.20;98870.03;4454777;32;20116;-86
2022/10/15 08:41:58;;;;;;;23.48;13.65;;;;;;;18.38;50.90;98863.91;4454069;32;20168;-87
2022/10/15 08:44:26;;;;;;;23.95;13.95;;;;;;;18.45;50.55;98865.06;4441601;32;20520;-86
2022/10/15 08:47:15;;;;;;;;;;;;;;;18.49;50.49;98866.50;4455090;32;20115;-86
2022/10/15 08:49:48;;;;;;;24.60;12.93;;;;;;;18.56;50.46;98861.47;4453666;32;19977;-86
2022/10/15 08:52:31;;;;;;;25.12;13.50;;;;;;;18.50;50.39;98867.34;4456039;32;20144;-86
2022/10/15 08:54:58;;;;;;;25.37;13.45;;;;;;;18.47;50.98;98863.13;4456205;32;20073;-87
2022/10/15 08:57:33;;;;;;;24.40;12.32;;;;;;;18.22;51.72;98867.88;4454897;32;20096;-86
2022/10/15 09:00:03;;;;;;;20.73;11.50;;;;;;;18.46;50.14;98864.91;4456065;32;20717;-86
2022/10/15 09:02:41;;;;;;;22.55;11.75;;;;;;;18.48;50.42;98862.12;4454320;32;20189;-86
2022/10/15 09:05:28;;;;;;;27.95;11.70;;;;;;;18.38;50.40;98866.56;4455123;32;20112;-87
2022/10/15 09:08:07;;;;;;;20.42;10.88;;;;;;;18.36;50.75;98863.19;4454904;32;20083;-86
2022/10/15 09:10:40;;;;;;;21.08;10.57;;;;;;;18.45;50.19;98865.91;4454806;32;20544;-86
2022/10/15 09:13:17;;;;;;;22.30;12.30;;;;;;;18.52;50.20;98868.88;4454923;32;20168;-87
2022/10/15 09:15:49;;;;;;;20.80;11.10;;;;;;;18.45;50.77;98873.91;4454773;32;20117;-86
2022/10/15 09:18:20;;;;;;;21.70;10.77;;;;;;;18.65;50.69;98877.53;4456317;32;20165;-87
2022/10/15 09:20:45;;;;;;;21.67;10.68;;;;;;;18.69;49.91;98886.13;4454580;32;20490;-86
2022/10/15 09:23:16;;;;;;;22.50;10.20;;;;;;;18.51;50.47;98887.72;4454689;32;20097;-87
2022/10/15 09:25:45;;;;;;;23.20;11.00;;;;;;;18.70;50.20;98889.63;4455971;32;20118;-86
2022/10/15 09:28:15;;;;;;;18.52;9.95;;;;;;;18.80;49.46;98890.56;4455838;32;20093;-86
2022/10/15 09:30:54;;;;;;;19.85;9.10;;;;;;;18.93;49.02;98891.19;4454616;32;20104;-86
2022/10/15 09:33:53;;;;;;;19.85;9.90;;;;;;;18.89;49.45;98886.22;4455752;32;20579;-86
2022/10/15 09:36:40;;;;;;;18.00;9.65;;;;;;;18.94;49.16;98884.84;4452610;32;20081;-86
2022/10/15 09:39:30;;;;;;;19.65;9.18;;;;;;;18.92;48.89;98877.97;4455527;32;20420;-87
2022/10/15 09:42:06;;;;;;;20.00;10.02;;;;;;;19.06;48.57;98869.56;4436836;32;20097;-87
2022/10/15 09:44:42;;;;;;;18.62;10.13;;;;;;;18.99;49.14;98879.97;4454464;32;20101;-86
2022/10/15 09:47:40;;;;;;;19.23;9.80;;;;;;;19.06;48.76;98888.25;4454368;32;20112;-86
2022/10/15 09:50:09;;;;;;;19.12;9.38;;;;;;;19.09;48.93;98889.84;4454660;32;20077;-86
2022/10/15 09:53:09;;;;;;;21.75;9.80;;;;;;;19.04;48.79;98888.41;4455645;32;20155;-86
2022/10/15 09:56:06;;;;;;;20.15;9.68;;;;;;;19.08;49.56;98883.63;4451636;32;20463;-86
2022/10/15 09:58:46;;;;;;;19.15;10.27;;;;;;;19.27;48.93;98890.03;4454420;32;20080;-86
2022/10/15 10:01:28;;;;;;;19.23;9.70;;;;;;;19.19;48.91;98885.38;4455446;32;20078;-86
2022/10/15 10:04:17;;;;;;;19.98;9.55;;;;;;;19.06;48.66;98885.59;4454363;32;20097;-87
2022/10/15 10:06:54;;;;;;;18.50;9.23;;;;;;;19.14;49.00;98880.44;4454454;32;20119;-86
2022/10/15 10:09:23;;;;;;;16.77;8.70;;;;;;;19.15;49.27;98875.94;4455763;32;20085;-86
2022/10/15 10:11:51;;;;;;;19.12;9.32;;;;;;;19.34;48.72;98867.97;4454563;32;20103;-86
2022/10/15 10:14:25;;;;;;;;;;;;;;;19.39;48.74;98862.22;4453256;32;20141;-86
2022/10/15 10:17:18;;;;;;;19.83;8.82;;;;;;;19.57;48.17;98865.06;4454289;32;20054;-86
2022/10/15 10:20:01;;;;;;;19.08;8.40;;;;;;;19.32;48.17;98869.94;4455344;32;20167;-86
2022/10/15 10:22:26;;;;;;;16.80;8.63;;;;;;;19.41;48.13;98873.59;4454114;32;20093;-86
2022/10/15 10:24:51;;;;;;;18.12;8.57;;;;;;;19.48;47.83;98866.72;4454069;32;20457;-86
2022/10/15 10:27:37;;;;;;;17.65;8.05;;;;;;;19.39;48.13;98876.44;4454087;32;20132;-86
2022/10/15 10:30:06;;;;;;;18.08;8.60;;;;;;;19.50;48.13;98871.94;4453624;32;20562;-86
2022/10/15 10:32:33;;;;;;;18.50;9.52;;;;;;;19.48;48.17;98868.56;4455172;32;20122;-86
2022/10/15 10:35:00;;;;;;;17.15;8.13;;;;;;;19.51;48.08;98866.47;4455210;32;20136;-86
2022/10/15 10:37:25;;;;;;;15.32;8.13;;;;;;;19.42;48.69;98861.94;4453912;32;20109;-86
2022/10/15 10:39:53;;;;;;;19.77;8.75;;;;;;;19.55;48.61;98867.88;4455065;32;20081;-85
2022/10/15 10:42:18;;;;;;;15.43;8.23;;;;;;;19.48;48.61;98858.72;4454874;32;20127;-87
2022/10/15 10:44:45;;;;;;;18.05;7.75;;;;;;;19.60;48.63;98848.72;4454899;32;20108;-86
2022/10/15 10:47:21;;;;;;;18.10;7.70;;;;;;;19.78;48.30;98840.88;4454725;32;20148;-86
2022/10/15 10:49:52;;;;;;;14.77;7.07;;;;;;;19.88;47.74;98835.56;4454831;32;20463;-87
2022/10/15 10:52:21;;;;;;;19.30;8.13;;;;;;;19.76;47.58;98834.84;4453636;32;20073;-86
2022/10/15 10:54:55;;;;;;;14.50;7.03;;;;;;;19.95;47.47;98836.66;4454912;32;20491;-86
2022/10/15 10:57:27;;;;;;;18.75;6.70;;;;;;;20.01;47.16;98839.62;4453577;32;20126;-86
2022/10/15 10:59:53;;;;;;;15.05;6.55;;;;;;;20.04;46.60;98842.00;4453628;32;20156;-86
2022/10/15 11:02:18;;;;;;;15.10;6.70;;;;;;;20.39;46.11;98831.66;4453516;32;20085;-87
2022/10/15 11:04:44;;;;;;;13.02;6.10;;;;;;;20.34;45.49;98836.59;4454673;32;20140;-85
2022/10/15 11:07:24;;;;;;;13.23;6.12;;;;;;;20.64;44.19;98835.53;4453588;32;20127;-86
2022/10/15 11:10:05;;;;;;;13.15;5.80;;;;;;;20.75;43.80;98830.00;4453505;32;20394;-86
2022/10/15 11:12:38;;;;;;;13.82;6.40;;;;;;;20.80;44.08;98826.87;4454630;32;20440;-87
2022/10/15 11:15:41;;;;;;;14.43;5.72;;;;;;;21.15;43.20;98822.59;4454608;32;20080;-86
2022/10/15 11:18:25;;;;;;;14.43;5.75;;;;;;;21.26;42.98;98821.56;4453559;32;20139;-86
2022/10/15 11:21:25;;;;;;;13.05;5.80;;;;;;;21.16;42.19;98821.63;4454318;32;20154;-86
2022/10/15 11:23:56;;;;;;;14.23;5.53;;;;;;;21.52;41.75;98810.97;4453069;32;20535;-86
2022/10/15 11:26:22;;;;;;;15.27;5.80;;;;;;;21.54;41.60;98809.00;4456600;32;20124;-86
2022/10/15 11:29:11;;;;;;;13.13;5.30;;;;;;;21.60;42.00;98805.69;4456589;32;20136;-87
2022/10/15 11:31:51;;;;;;;10.82;5.05;;;;;;;21.72;41.91;98795.56;4456753;32;20107;-86